Corsair — WDI5217 — position and weather

sailwx.info

Track history (hours):
 
Tides and Currents Weather Stations Pressure Air Temp Water Temp Dewpoint Dewpoint Depression Visibility Wind Speed Wind Dir Waves Ship Positions

Corsair

Owner: MIFC SHIPPING LLC, Saint Ignace, MI. More information available from US FCC via Universal Licensing System and Coast Guard Vessel Documentation Center.

Last reported at 2017-Oct-17 13:56 UTC. Time now 2017-Oct-18 01:54 UTC.
Position N 45°51' W 084°40'.

Length 28 m; draft 2.1 m.

Type: Cargo ship. MMSI: 367706320.

Date/timePositionNaut miles runAvg speedWind from/ knotsBaromVisibWave heightAir tempDewpointWater temp
2017-Oct-17 13:56N 45°51' W 084°40'1 0.0
2017-Oct-16 16:32N 45°51' W 084°41'0 8.3
2017-Oct-16 16:30N 45°51' W 084°41'3 2.8
2017-Oct-16 15:32N 45°51' W 084°37'1 8.4
2017-Oct-16 15:27N 45°51' W 084°38'3 1.6
2017-Oct-16 13:39N 45°51' W 084°42'1 8.1
2017-Oct-16 13:30N 45°51' W 084°40'2 4.7
2017-Oct-16 13:00N 45°51' W 084°37'0 0.0
2017-Oct-16 12:30N 45°51' W 084°37'0 0.0
2017-Oct-16 12:00N 45°51' W 084°37'0 0.0
2017-Oct-16 11:28N 45°51' W 084°37'3 6.0
2017-Oct-16 10:55N 45°51' W 084°42'0 0.5
2017-Oct-16 10:18N 45°51' W 084°42'1 0.0
2017-Oct-14 12:39N 45°51' W 084°41'1 8.4
2017-Oct-14 12:30N 45°51' W 084°39'1 2.1
2017-Oct-14 11:49N 45°51' W 084°37'3 8.3
2017-Oct-14 11:30N 45°51' W 084°41'1 0.1
2017-Oct-13 17:23N 45°51' W 084°42'2 4.6
2017-Oct-13 16:57N 45°51' W 084°39'2 3.2
2017-Oct-13 16:25N 45°51' W 084°37'3 2.2
2017-Oct-13 14:55N 45°51' W 084°42'3 7.5
2017-Oct-13 14:28N 45°51' W 084°37'3 1.5
2017-Oct-13 12:30N 45°51' W 084°41'3 3.0
2017-Oct-13 11:26N 45°51' W 084°37'3 0.2
2017-Oct-12 18:34N 45°51' W 084°41'0 0.1
2017-Oct-12 13:39N 45°51' W 084°41'2 0.9
2017-Oct-12 11:30N 45°51' W 084°38'4 0.2
2017-Oct-11 16:39N 45°52' W 084°44'0 0.0
2017-Oct-10 18:12N 45°52' W 084°44'1 6.5
2017-Oct-10 18:00N 45°51' W 084°42'0 0.4
2017-Oct-10 17:29N 45°51' W 084°42'0 0.0
2017-Oct-10 17:01N 45°51' W 084°42'1 1.5
2017-Oct-10 16:31N 45°51' W 084°41'3 5.7
2017-Oct-10 16:00N 45°51' W 084°37'0 0.6
2017-Oct-10 15:30N 45°51' W 084°37'4 7.2
2017-Oct-10 14:59N 45°51' W 084°42'0 0.0
2017-Oct-10 14:01N 45°51' W 084°42'1 2.1
2017-Oct-10 13:31N 45°51' W 084°41'3 5.0
2017-Oct-10 13:00N 45°51' W 084°37'0 0.0
2017-Oct-10 12:30N 45°51' W 084°37'0 0.0
2017-Oct-10 12:00N 45°51' W 084°37'0 0.0
2017-Oct-10 11:30N 45°51' W 084°37'3 6.2
2017-Oct-10 11:00N 45°51' W 084°42'0 0.8
2017-Oct-10 10:30N 45°51' W 084°42'1 2.9
2017-Oct-10 10:00N 45°52' W 084°44'0 0.0
2017-Oct-09 19:16N 45°52' W 084°44'1 5.5
2017-Oct-09 19:00N 45°51' W 084°42'0 0.5
2017-Oct-09 18:30N 45°51' W 084°42'3 6.7
2017-Oct-09 18:00N 45°51' W 084°37'0 0.0
2017-Oct-09 17:30N 45°51' W 084°37'0 0.0
2017-Oct-09 17:01N 45°51' W 084°37'1 2.8
2017-Oct-09 16:30N 45°51' W 084°39'2 4.5
2017-Oct-09 16:00N 45°51' W 084°42'0 0.0
2017-Oct-09 15:30N 45°51' W 084°42'0 0.0
2017-Oct-09 15:00N 45°51' W 084°42'0 0.0
2017-Oct-09 14:31N 45°51' W 084°42'1 1.9
2017-Oct-09 13:59N 45°51' W 084°41'3 5.4
2017-Oct-09 13:30N 45°51' W 084°37'0 0.0
2017-Oct-09 13:00N 45°51' W 084°37'0 0.0
2017-Oct-09 12:27N 45°51' W 084°37'0 0.0
2017-Oct-09 12:00N 45°51' W 084°37'0 0.5
2017-Oct-09 11:29N 45°51' W 084°37'4 7.4
2017-Oct-09 10:58N 45°51' W 084°42'0 0.0
2017-Oct-09 10:29N 45°51' W 084°42'1 2.8
2017-Oct-09 09:59N 45°52' W 084°44'  
Track history (hours):
 
Tides and Currents Weather Stations Pressure Air Temp Water Temp Dewpoint Dewpoint Depression Visibility Wind Speed Wind Dir Waves Ship Positions

Corsair

Owner: MIFC SHIPPING LLC, Saint Ignace, MI. More information available from US FCC via Universal Licensing System and Coast Guard Vessel Documentation Center.

Last reported at 2017-Oct-17 13:56 UTC. Time now 2017-Oct-18 01:54 UTC.
Position N 45°51' W 084°40'.

Length 28 m; draft 2.1 m.

Type: Cargo ship. MMSI: 367706320.

Date/timePositionNaut miles runAvg speedWind from/ knotsBaromVisibWave heightAir tempDewpointWater temp
2017-Oct-17 13:56N 45°51' W 084°40'1 0.0
2017-Oct-16 16:32N 45°51' W 084°41'0 8.3
2017-Oct-16 16:30N 45°51' W 084°41'3 2.8
2017-Oct-16 15:32N 45°51' W 084°37'1 8.4
2017-Oct-16 15:27N 45°51' W 084°38'3 1.6
2017-Oct-16 13:39N 45°51' W 084°42'1 8.1
2017-Oct-16 13:30N 45°51' W 084°40'2 4.7
2017-Oct-16 13:00N 45°51' W 084°37'0 0.0
2017-Oct-16 12:30N 45°51' W 084°37'0 0.0
2017-Oct-16 12:00N 45°51' W 084°37'0 0.0
2017-Oct-16 11:28N 45°51' W 084°37'3 6.0
2017-Oct-16 10:55N 45°51' W 084°42'0 0.5
2017-Oct-16 10:18N 45°51' W 084°42'1 0.0
2017-Oct-14 12:39N 45°51' W 084°41'1 8.4
2017-Oct-14 12:30N 45°51' W 084°39'1 2.1
2017-Oct-14 11:49N 45°51' W 084°37'3 8.3
2017-Oct-14 11:30N 45°51' W 084°41'1 0.1
2017-Oct-13 17:23N 45°51' W 084°42'2 4.6
2017-Oct-13 16:57N 45°51' W 084°39'2 3.2
2017-Oct-13 16:25N 45°51' W 084°37'3 2.2
2017-Oct-13 14:55N 45°51' W 084°42'3 7.5
2017-Oct-13 14:28N 45°51' W 084°37'3 1.5
2017-Oct-13 12:30N 45°51' W 084°41'3 3.0
2017-Oct-13 11:26N 45°51' W 084°37'3 0.2
2017-Oct-12 18:34N 45°51' W 084°41'0 0.1
2017-Oct-12 13:39N 45°51' W 084°41'2 0.9
2017-Oct-12 11:30N 45°51' W 084°38'4 0.2
2017-Oct-11 16:39N 45°52' W 084°44'0 0.0
2017-Oct-10 18:12N 45°52' W 084°44'1 6.5
2017-Oct-10 18:00N 45°51' W 084°42'0 0.4
2017-Oct-10 17:29N 45°51' W 084°42'0 0.0
2017-Oct-10 17:01N 45°51' W 084°42'1 1.5
2017-Oct-10 16:31N 45°51' W 084°41'3 5.7
2017-Oct-10 16:00N 45°51' W 084°37'0 0.6
2017-Oct-10 15:30N 45°51' W 084°37'4 7.2
2017-Oct-10 14:59N 45°51' W 084°42'0 0.0
2017-Oct-10 14:01N 45°51' W 084°42'1 2.1
2017-Oct-10 13:31N 45°51' W 084°41'3 5.0
2017-Oct-10 13:00N 45°51' W 084°37'0 0.0
2017-Oct-10 12:30N 45°51' W 084°37'0 0.0
2017-Oct-10 12:00N 45°51' W 084°37'0 0.0
2017-Oct-10 11:30N 45°51' W 084°37'3 6.2
2017-Oct-10 11:00N 45°51' W 084°42'0 0.8
2017-Oct-10 10:30N 45°51' W 084°42'1 2.9
2017-Oct-10 10:00N 45°52' W 084°44'0 0.0
2017-Oct-09 19:16N 45°52' W 084°44'1 5.5
2017-Oct-09 19:00N 45°51' W 084°42'0 0.5
2017-Oct-09 18:30N 45°51' W 084°42'3 6.7
2017-Oct-09 18:00N 45°51' W 084°37'0 0.0
2017-Oct-09 17:30N 45°51' W 084°37'0 0.0
2017-Oct-09 17:01N 45°51' W 084°37'1 2.8
2017-Oct-09 16:30N 45°51' W 084°39'2 4.5
2017-Oct-09 16:00N 45°51' W 084°42'0 0.0
2017-Oct-09 15:30N 45°51' W 084°42'0 0.0
2017-Oct-09 15:00N 45°51' W 084°42'0 0.0
2017-Oct-09 14:31N 45°51' W 084°42'1 1.9
2017-Oct-09 13:59N 45°51' W 084°41'3 5.4
2017-Oct-09 13:30N 45°51' W 084°37'0 0.0
2017-Oct-09 13:00N 45°51' W 084°37'0 0.0
2017-Oct-09 12:27N 45°51' W 084°37'0 0.0
2017-Oct-09 12:00N 45°51' W 084°37'0 0.5
2017-Oct-09 11:29N 45°51' W 084°37'4 7.4
2017-Oct-09 10:58N 45°51' W 084°42'0 0.0
2017-Oct-09 10:29N 45°51' W 084°42'1 2.8
2017-Oct-09 09:59N 45°52' W 084°44'  

Dump ship's entire track history